Terminal Aerodrome Forecast
Issued by NWS

Home | Current Version | Previous Version | Text Only | Print | Product List | Glossary On
Versions: 1 2 3 4 5 6 7 8 9 10 11 12 13 14 15 16 17 18 19 20 21 22
000
FTUS43 KLSX 212344
TAFUIN
TAF
KUIN 212344Z 2200/2224 19007KT P6SM VCTS OVC250CB
     FM220500 22006KT 4SM -SHRA BKN090
      TEMPO 2205/2209 2SM TS OVC040CB
     FM221300 25008KT P6SM VCTS OVC025CB
     FM221800 33010KT P6SM BKN035
     FM222100 35011KT P6SM SCT140=

USA.gov is the U.S. government's official web portal to all federal, state and local government web resources and services.